Bluffton, Indiana
Current Conditions -  °F | °C
As of 2:35 AM on Sunday 23 Nov 2014 (Local Time) from KHHG Reporting Station
Light Rain Light Rain  
Wind Chill: 41°   Ceiling: 11000
Heat Index: 46°   Visibility: 10mi
Dew Point: 43°   Wind: 8mph
Humidity: 90%   Direction: 200°SSW
Pressure: 29.95"   Gusts: NA
Location:  40.74°N, 85.17°W
Report Text: KHHG 230735Z AUTO 20007KT 10SM -RA OVC110 08/06 A2995 RMK AO2 T00750060
Loading
Personal Weather Stations






























Interactive Weather Map New forecast layout! Learn more

10-Day Weather Forecast

Advertisements
Track Severe Weather on mobile